AFV462 YSSY-FQMA
Flight info
| Callsign | AFV462 |
|---|---|
| Flight time | N/A |
| Altitude | 32000 |
| Route | MARUB7/34R WOL J42 AY T8 TEKUP DCT 40S123E 41S117E 43S110E 44S103E 44S096E 44S089E 43S081E DCT RERAB UT585 BIGSA DCT 37S050E 34S045E 31S039E DCT EGSOX UQ21 ALENI DCT EPRET EPRET1A |
| Aircraft | B77W/H-SDE1E2E3FGHIJ2J3J4J5M1RWXY/LB1D1 |
Departure
| Time | 2026-04-25 00:27 |
|---|---|
| Airport | Sydney Kingsford Smith International Airport (YSSY) |
Arrival
| Time | N/A |
|---|---|
| Airport | Maputo Airport (FQMA) |
| Time | Latitude | Longitude | Altitude | Speed | Heading |
|---|---|---|---|---|---|
| 2026-04-25 00:02 | -33.94440 | 151.17141 | 35 ft | 0 kts | 343° |
| 2026-04-25 00:19 | -33.94438 | 151.17140 | 35 ft | 4 kts | 343° |
| 2026-04-25 00:19 | -33.94384 | 151.17147 | 35 ft | 9 kts | 34° |
| 2026-04-25 00:20 | -33.94352 | 151.17218 | 35 ft | 13 kts | 70° |
| 2026-04-25 00:20 | -33.94398 | 151.17333 | 35 ft | 18 kts | 163° |
| 2026-04-25 00:20 | -33.94524 | 151.17369 | 35 ft | 19 kts | 167° |
| 2026-04-25 00:20 | -33.94650 | 151.17400 | 35 ft | 19 kts | 169° |
| 2026-04-25 00:21 | -33.94776 | 151.17431 | 35 ft | 19 kts | 167° |
| 2026-04-25 00:21 | -33.94902 | 151.17466 | 34 ft | 19 kts | 167° |
| 2026-04-25 00:21 | -33.95027 | 151.17500 | 34 ft | 18 kts | 167° |
| 2026-04-25 00:21 | -33.95153 | 151.17532 | 34 ft | 19 kts | 168° |
| 2026-04-25 00:22 | -33.95280 | 151.17563 | 34 ft | 18 kts | 168° |
| 2026-04-25 00:22 | -33.95405 | 151.17595 | 34 ft | 18 kts | 168° |
| 2026-04-25 00:22 | -33.95531 | 151.17628 | 34 ft | 18 kts | 168° |
| 2026-04-25 00:22 | -33.95657 | 151.17660 | 35 ft | 18 kts | 168° |
| 2026-04-25 00:23 | -33.95782 | 151.17695 | 35 ft | 18 kts | 167° |
| 2026-04-25 00:23 | -33.95908 | 151.17729 | 35 ft | 18 kts | 168° |
| 2026-04-25 00:23 | -33.96034 | 151.17761 | 35 ft | 18 kts | 168° |
| 2026-04-25 00:23 | -33.96160 | 151.17792 | 35 ft | 18 kts | 168° |
| 2026-04-25 00:24 | -33.96286 | 151.17824 | 35 ft | 18 kts | 168° |
| 2026-04-25 00:24 | -33.96400 | 151.17860 | 35 ft | 16 kts | 152° |
| 2026-04-25 00:24 | -33.96430 | 151.17921 | 35 ft | 0 kts | 96° |
| 2026-04-25 00:25 | -33.96431 | 151.17944 | 35 ft | 12 kts | 89° |
| 2026-04-25 00:25 | -33.96401 | 151.18046 | 34 ft | 5 kts | 23° |
| 2026-04-25 00:26 | -33.96358 | 151.18046 | 34 ft | 11 kts | 352° |
| 2026-04-25 00:26 | -33.96331 | 151.18040 | 34 ft | 0 kts | 348° |
| 2026-04-25 00:26 | -33.96330 | 151.18040 | 34 ft | 6 kts | 348° |
| 2026-04-25 00:26 | -33.95965 | 151.17947 | 33 ft | 100 kts | 348° |
| 2026-04-25 00:27 | -33.94997 | 151.17689 | 36 ft | 184 kts | 348° |
| 2026-04-25 00:27 | -33.93643 | 151.17334 | 785 ft | 201 kts | 346° |
| 2026-04-25 00:27 | -33.92297 | 151.16956 | 2018 ft | 197 kts | 341° |
| 2026-04-25 00:27 | -33.91108 | 151.16133 | 2574 ft | 208 kts | 316° |
| 2026-04-25 00:28 | -33.90247 | 151.14634 | 2768 ft | 225 kts | 297° |
| 2026-04-25 00:28 | -33.89600 | 151.12910 | 3337 ft | 230 kts | 296° |
| 2026-04-25 00:28 | -33.88821 | 151.11114 | 3539 ft | 253 kts | 302° |
| 2026-04-25 00:28 | -33.87900 | 151.09262 | 4045 ft | 262 kts | 303° |
| 2026-04-25 00:29 | -33.86921 | 151.07384 | 4688 ft | 268 kts | 303° |
| 2026-04-25 00:29 | -33.85913 | 151.05489 | 5409 ft | 270 kts | 304° |
| 2026-04-25 00:29 | -33.84890 | 151.03582 | 6104 ft | 273 kts | 304° |
| 2026-04-25 00:29 | -33.83881 | 151.01634 | 6754 ft | 275 kts | 296° |
| 2026-04-25 00:30 | -33.83487 | 150.99393 | 7237 ft | 280 kts | 264° |
| 2026-04-25 00:30 | -33.84106 | 150.97183 | 7753 ft | 283 kts | 234° |
| 2026-04-25 00:30 | -33.85521 | 150.95567 | 8423 ft | 282 kts | 208° |
| 2026-04-25 00:30 | -33.87372 | 150.94832 | 9055 ft | 283 kts | 184° |
| 2026-04-25 00:31 | -33.89328 | 150.95044 | 9620 ft | 283 kts | 166° |
| 2026-04-25 00:31 | -33.91268 | 150.95603 | 10146 ft | 289 kts | 166° |
| 2026-04-25 00:31 | -33.93274 | 150.96168 | 10508 ft | 306 kts | 167° |
| 2026-04-25 00:31 | -33.95419 | 150.96760 | 10653 ft | 327 kts | 167° |
| 2026-04-25 00:32 | -33.97715 | 150.97368 | 10821 ft | 346 kts | 171° |
| 2026-04-25 00:32 | -34.00174 | 150.97330 | 10979 ft | 362 kts | 193° |
| 2026-04-25 00:32 | -34.02596 | 150.96485 | 11332 ft | 373 kts | 195° |
| 2026-04-25 00:32 | -34.05117 | 150.95611 | 11959 ft | 379 kts | 194° |
| 2026-04-25 00:33 | -34.07662 | 150.94764 | 12767 ft | 380 kts | 194° |
| 2026-04-25 00:33 | -34.10230 | 150.93924 | 13453 ft | 385 kts | 194° |
| 2026-04-25 00:33 | -34.12832 | 150.93079 | 14130 ft | 391 kts | 194° |
| 2026-04-25 00:33 | -34.15476 | 150.92222 | 14777 ft | 395 kts | 194° |
| 2026-04-25 00:34 | -34.18135 | 150.91361 | 15455 ft | 397 kts | 194° |
| 2026-04-25 00:34 | -34.20817 | 150.90492 | 16150 ft | 400 kts | 194° |
| 2026-04-25 00:34 | -34.23516 | 150.89616 | 16810 ft | 404 kts | 194° |
| 2026-04-25 00:34 | -34.26248 | 150.88730 | 17449 ft | 408 kts | 193° |
| 2026-04-25 00:35 | -34.29001 | 150.87836 | 18085 ft | 412 kts | 194° |
| 2026-04-25 00:35 | -34.31787 | 150.86931 | 18722 ft | 416 kts | 193° |
| 2026-04-25 00:35 | -34.34588 | 150.86021 | 19290 ft | 419 kts | 193° |
| 2026-04-25 00:35 | -34.37413 | 150.85101 | 19873 ft | 421 kts | 193° |
| 2026-04-25 00:36 | -34.40221 | 150.84187 | 20452 ft | 424 kts | 193° |
| 2026-04-25 00:36 | -34.43087 | 150.83252 | 21003 ft | 427 kts | 193° |
| 2026-04-25 00:36 | -34.45959 | 150.82315 | 21571 ft | 430 kts | 193° |
| 2026-04-25 00:36 | -34.48861 | 150.81369 | 22111 ft | 433 kts | 193° |
| 2026-04-25 00:37 | -34.51779 | 150.80415 | 22655 ft | 435 kts | 194° |
| 2026-04-25 00:37 | -34.54583 | 150.79033 | 22956 ft | 442 kts | 211° |
| 2026-04-25 00:37 | -34.56923 | 150.76565 | 23333 ft | 451 kts | 229° |
| 2026-04-25 00:37 | -34.58631 | 150.73360 | 23841 ft | 454 kts | 239° |
| 2026-04-25 00:38 | -34.60151 | 150.69989 | 24236 ft | 458 kts | 239° |
| 2026-04-25 00:38 | -34.61686 | 150.66576 | 24651 ft | 461 kts | 239° |
| 2026-04-25 00:38 | -34.63227 | 150.63164 | 25105 ft | 462 kts | 239° |
| 2026-04-25 00:38 | -34.64784 | 150.59736 | 25566 ft | 464 kts | 239° |
| 2026-04-25 00:39 | -34.66351 | 150.56305 | 25997 ft | 466 kts | 239° |
| 2026-04-25 00:39 | -34.67935 | 150.52850 | 26397 ft | 469 kts | 239° |
| 2026-04-25 00:39 | -34.69529 | 150.49378 | 26801 ft | 472 kts | 238° |
| 2026-04-25 00:39 | -34.71133 | 150.45889 | 27180 ft | 474 kts | 239° |
| 2026-04-25 00:40 | -34.72743 | 150.42385 | 27597 ft | 476 kts | 239° |
| 2026-04-25 00:40 | -34.74357 | 150.38869 | 28009 ft | 478 kts | 238° |
| 2026-04-25 00:40 | -34.75980 | 150.35329 | 28377 ft | 480 kts | 238° |
| 2026-04-25 00:40 | -34.77606 | 150.31779 | 28718 ft | 482 kts | 238° |
| 2026-04-25 00:41 | -34.79242 | 150.28203 | 29049 ft | 485 kts | 239° |
| 2026-04-25 00:41 | -34.80885 | 150.24608 | 29367 ft | 487 kts | 239° |
| 2026-04-25 00:41 | -34.82532 | 150.21000 | 29697 ft | 489 kts | 239° |
| 2026-04-25 00:41 | -34.84185 | 150.17371 | 29985 ft | 491 kts | 239° |
| 2026-04-25 00:42 | -34.85840 | 150.13735 | 30271 ft | 492 kts | 239° |
| 2026-04-25 00:42 | -34.87497 | 150.10092 | 30617 ft | 491 kts | 239° |
| 2026-04-25 00:42 | -34.89148 | 150.06456 | 30999 ft | 489 kts | 239° |
| 2026-04-25 00:42 | -34.90787 | 150.02844 | 31392 ft | 487 kts | 239° |
| 2026-04-25 00:43 | -34.92420 | 149.99243 | 31756 ft | 485 kts | 239° |
| 2026-04-25 00:43 | -34.94046 | 149.95654 | 32099 ft | 483 kts | 239° |
| 2026-04-25 00:43 | -34.95646 | 149.92121 | 32391 ft | 482 kts | 239° |
| 2026-04-25 00:43 | -34.97271 | 149.88526 | 32415 ft | 486 kts | 239° |
| 2026-04-25 00:44 | -35.00519 | 149.81331 | 32472 ft | 481 kts | 239° |
| 2026-04-25 00:44 | -35.03727 | 149.74206 | 32467 ft | 478 kts | 239° |
| 2026-04-25 00:45 | -35.06926 | 149.67091 | 32476 ft | 478 kts | 239° |
| 2026-04-25 00:45 | -35.10123 | 149.59966 | 32461 ft | 478 kts | 239° |
| 2026-04-25 00:46 | -35.13310 | 149.52845 | 32467 ft | 479 kts | 239° |
| 2026-04-25 00:47 | -35.18100 | 149.42116 | 32489 ft | 479 kts | 239° |
| 2026-04-25 00:47 | -35.21284 | 149.34964 | 32502 ft | 479 kts | 240° |
| 2026-04-25 00:48 | -35.24471 | 149.27790 | 32511 ft | 479 kts | 240° |
| 2026-04-25 00:48 | -35.27651 | 149.20616 | 32511 ft | 480 kts | 240° |
| 2026-04-25 00:49 | -35.30481 | 149.13274 | 32511 ft | 480 kts | 244° |
| 2026-04-25 00:49 | -35.33183 | 149.05794 | 32470 ft | 480 kts | 244° |
| 2026-04-25 00:50 | -35.35905 | 148.98262 | 32467 ft | 480 kts | 245° |
| 2026-04-25 00:50 | -35.38601 | 148.90830 | 32466 ft | 480 kts | 244° |
| 2026-04-25 00:51 | -35.41334 | 148.83303 | 32467 ft | 480 kts | 245° |
| 2026-04-25 00:51 | -35.44029 | 148.75864 | 32459 ft | 481 kts | 245° |
| 2026-04-25 00:52 | -35.46736 | 148.68372 | 32465 ft | 480 kts | 245° |
| 2026-04-25 00:52 | -35.49438 | 148.60874 | 32458 ft | 480 kts | 245° |
| 2026-04-25 00:53 | -35.52134 | 148.53375 | 32459 ft | 480 kts | 245° |
| 2026-04-25 00:53 | -35.54821 | 148.45883 | 32455 ft | 479 kts | 245° |
| 2026-04-25 00:54 | -35.57501 | 148.38387 | 32465 ft | 479 kts | 245° |
| 2026-04-25 00:54 | -35.60176 | 148.30897 | 32459 ft | 479 kts | 245° |
| 2026-04-25 00:55 | -35.62844 | 148.23403 | 32461 ft | 478 kts | 245° |
| 2026-04-25 00:55 | -35.65504 | 148.15911 | 32460 ft | 478 kts | 245° |
| 2026-04-25 00:56 | -35.68158 | 148.08423 | 32464 ft | 478 kts | 245° |
| 2026-04-25 00:56 | -35.70807 | 148.00930 | 32461 ft | 477 kts | 245° |
| 2026-04-25 00:57 | -35.73449 | 147.93438 | 32469 ft | 477 kts | 246° |
| 2026-04-25 00:57 | -35.76090 | 147.85929 | 32456 ft | 477 kts | 246° |
| 2026-04-25 00:58 | -35.78704 | 147.78478 | 32460 ft | 477 kts | 246° |
| 2026-04-25 00:58 | -35.81333 | 147.70969 | 32465 ft | 478 kts | 246° |
| 2026-04-25 00:59 | -35.83960 | 147.63448 | 32455 ft | 478 kts | 246° |
| 2026-04-25 00:59 | -35.86565 | 147.55917 | 32461 ft | 478 kts | 246° |
| 2026-04-25 01:00 | -35.89157 | 147.48372 | 32453 ft | 478 kts | 246° |
| 2026-04-25 01:00 | -35.91747 | 147.40823 | 32455 ft | 477 kts | 246° |
| 2026-04-25 01:01 | -35.93910 | 147.34508 | 32455 ft | 477 kts | 246° |
| 2026-04-25 01:01 | -35.96472 | 147.27013 | 32460 ft | 477 kts | 246° |
| 2026-04-25 01:02 | -35.99043 | 147.19471 | 32452 ft | 477 kts | 246° |
| 2026-04-25 01:02 | -36.01612 | 147.11915 | 32454 ft | 477 kts | 246° |
| 2026-04-25 01:03 | -36.04173 | 147.04369 | 32455 ft | 476 kts | 247° |
| 2026-04-25 01:03 | -36.06700 | 146.96801 | 32449 ft | 476 kts | 249° |
| 2026-04-25 01:04 | -36.08546 | 146.88933 | 32459 ft | 476 kts | 255° |
| 2026-04-25 01:04 | -36.10218 | 146.81005 | 32451 ft | 477 kts | 255° |
| 2026-04-25 01:05 | -36.11903 | 146.73077 | 32456 ft | 477 kts | 255° |
| 2026-04-25 01:05 | -36.13604 | 146.65147 | 32448 ft | 477 kts | 255° |
| 2026-04-25 01:06 | -36.15308 | 146.57211 | 32449 ft | 477 kts | 255° |
| 2026-04-25 01:06 | -36.17006 | 146.49272 | 32443 ft | 477 kts | 255° |
| 2026-04-25 01:07 | -36.18696 | 146.41342 | 32441 ft | 477 kts | 255° |
| 2026-04-25 01:07 | -36.20382 | 146.33398 | 32440 ft | 477 kts | 255° |
| 2026-04-25 01:08 | -36.22061 | 146.25462 | 32445 ft | 476 kts | 255° |
| 2026-04-25 01:08 | -36.23734 | 146.17527 | 32434 ft | 476 kts | 255° |
| 2026-04-25 01:09 | -36.25399 | 146.09595 | 32432 ft | 475 kts | 255° |
| 2026-04-25 01:09 | -36.27056 | 146.01679 | 32434 ft | 475 kts | 255° |
| 2026-04-25 01:10 | -36.28708 | 145.93756 | 32434 ft | 475 kts | 255° |
| 2026-04-25 01:10 | -36.30347 | 145.85868 | 32432 ft | 475 kts | 255° |
| 2026-04-25 01:11 | -36.31989 | 145.77936 | 32422 ft | 475 kts | 255° |
| 2026-04-25 01:11 | -36.33627 | 145.69996 | 32427 ft | 475 kts | 255° |
| 2026-04-25 01:12 | -36.35259 | 145.62057 | 32417 ft | 475 kts | 256° |
| 2026-04-25 01:12 | -36.36885 | 145.54117 | 32418 ft | 474 kts | 256° |
| 2026-04-25 01:13 | -36.38502 | 145.46192 | 32414 ft | 474 kts | 256° |
| 2026-04-25 01:13 | -36.40107 | 145.38294 | 32417 ft | 475 kts | 256° |
| 2026-04-25 01:14 | -36.41719 | 145.30339 | 32414 ft | 475 kts | 256° |
| 2026-04-25 01:14 | -36.43326 | 145.22377 | 32412 ft | 475 kts | 256° |
| 2026-04-25 01:15 | -36.44925 | 145.14421 | 32418 ft | 475 kts | 256° |
| 2026-04-25 01:15 | -36.46522 | 145.06453 | 32411 ft | 475 kts | 256° |
| 2026-04-25 01:16 | -36.48114 | 144.98475 | 32400 ft | 475 kts | 256° |
| 2026-04-25 01:16 | -36.49700 | 144.90495 | 32407 ft | 476 kts | 256° |
| 2026-04-25 01:17 | -36.51283 | 144.82505 | 32403 ft | 476 kts | 256° |
| 2026-04-25 01:17 | -36.52862 | 144.74503 | 32407 ft | 477 kts | 257° |
| 2026-04-25 01:18 | -36.54427 | 144.66541 | 32400 ft | 477 kts | 257° |
| 2026-04-25 01:18 | -36.55995 | 144.58531 | 32402 ft | 476 kts | 257° |
| 2026-04-25 01:19 | -36.57557 | 144.50525 | 32401 ft | 476 kts | 257° |
| 2026-04-25 01:19 | -36.59111 | 144.42527 | 32396 ft | 476 kts | 257° |
| 2026-04-25 01:20 | -36.60661 | 144.34525 | 32403 ft | 475 kts | 257° |
| 2026-04-25 01:20 | -36.62203 | 144.26529 | 32395 ft | 475 kts | 257° |
| 2026-04-25 01:21 | -36.63740 | 144.18524 | 32391 ft | 475 kts | 257° |
| 2026-04-25 01:21 | -36.65271 | 144.10525 | 32390 ft | 475 kts | 257° |
| 2026-04-25 01:22 | -36.66794 | 144.02534 | 32388 ft | 475 kts | 257° |
| 2026-04-25 01:22 | -36.68314 | 143.94526 | 32391 ft | 474 kts | 257° |
| 2026-04-25 01:23 | -36.69827 | 143.86530 | 32384 ft | 474 kts | 258° |
| 2026-04-25 01:23 | -36.71331 | 143.78542 | 32384 ft | 473 kts | 258° |
| 2026-04-25 01:24 | -36.72830 | 143.70558 | 32378 ft | 473 kts | 258° |
| 2026-04-25 01:24 | -36.74322 | 143.62574 | 32382 ft | 473 kts | 258° |
| 2026-04-25 01:25 | -36.75809 | 143.54585 | 32368 ft | 473 kts | 258° |
| 2026-04-25 01:25 | -36.77292 | 143.46586 | 32372 ft | 473 kts | 258° |
| 2026-04-25 01:26 | -36.78759 | 143.38639 | 32370 ft | 473 kts | 258° |
| 2026-04-25 01:26 | -36.80232 | 143.30632 | 32366 ft | 473 kts | 258° |
| 2026-04-25 01:27 | -36.81699 | 143.22624 | 32359 ft | 473 kts | 258° |
| 2026-04-25 01:27 | -36.83162 | 143.14609 | 32352 ft | 473 kts | 258° |
| 2026-04-25 01:28 | -36.85341 | 143.02601 | 32353 ft | 472 kts | 258° |
| 2026-04-25 01:28 | -36.86785 | 142.94609 | 32348 ft | 471 kts | 259° |
| 2026-04-25 01:29 | -36.88146 | 142.86598 | 32349 ft | 471 kts | 261° |
| 2026-04-25 01:29 | -36.89350 | 142.78567 | 32345 ft | 470 kts | 261° |
| 2026-04-25 01:30 | -36.90539 | 142.70541 | 32338 ft | 469 kts | 261° |
| 2026-04-25 01:30 | -36.91739 | 142.62532 | 32339 ft | 469 kts | 261° |
| 2026-04-25 01:31 | -36.92945 | 142.54529 | 32346 ft | 468 kts | 261° |
| 2026-04-25 01:31 | -36.94139 | 142.46588 | 32332 ft | 468 kts | 261° |
| 2026-04-25 01:32 | -36.95334 | 142.38592 | 32323 ft | 467 kts | 261° |
| 2026-04-25 01:32 | -36.96523 | 142.30599 | 32328 ft | 467 kts | 261° |
| 2026-04-25 01:33 | -36.97704 | 142.22611 | 32324 ft | 467 kts | 261° |
| 2026-04-25 01:33 | -36.98880 | 142.14626 | 32337 ft | 467 kts | 262° |
| 2026-04-25 01:34 | -37.00050 | 142.06641 | 32318 ft | 467 kts | 262° |
| 2026-04-25 01:34 | -37.01215 | 141.98652 | 32318 ft | 466 kts | 262° |
| 2026-04-25 01:35 | -37.02373 | 141.90671 | 32310 ft | 466 kts | 262° |
| 2026-04-25 01:35 | -37.03526 | 141.82688 | 32307 ft | 466 kts | 262° |
| 2026-04-25 01:36 | -37.04674 | 141.74697 | 32297 ft | 466 kts | 262° |
| 2026-04-25 01:36 | -37.05815 | 141.66710 | 32293 ft | 466 kts | 262° |
| 2026-04-25 01:37 | -37.06951 | 141.58728 | 32293 ft | 466 kts | 262° |
| 2026-04-25 01:37 | -37.08081 | 141.50743 | 32282 ft | 465 kts | 262° |
| 2026-04-25 01:38 | -37.09198 | 141.42814 | 32299 ft | 465 kts | 262° |
| 2026-04-25 01:38 | -37.10316 | 141.34831 | 32284 ft | 465 kts | 262° |
| 2026-04-25 01:39 | -37.11428 | 141.26854 | 32278 ft | 465 kts | 262° |
| 2026-04-25 01:39 | -37.12534 | 141.18877 | 32272 ft | 464 kts | 263° |
| 2026-04-25 01:40 | -37.13634 | 141.10906 | 32264 ft | 464 kts | 263° |
| 2026-04-25 01:40 | -37.14727 | 141.02944 | 32265 ft | 463 kts | 263° |
| 2026-04-25 01:41 | -37.15814 | 140.94982 | 32257 ft | 463 kts | 263° |
| 2026-04-25 01:41 | -37.16895 | 140.87026 | 32260 ft | 463 kts | 263° |
| 2026-04-25 01:42 | -37.17970 | 140.79075 | 32250 ft | 463 kts | 263° |
| 2026-04-25 01:42 | -37.19039 | 140.71124 | 32263 ft | 462 kts | 263° |
| 2026-04-25 01:43 | -37.20104 | 140.63157 | 32246 ft | 462 kts | 263° |
| 2026-04-25 01:43 | -37.21155 | 140.55257 | 32242 ft | 462 kts | 263° |
| 2026-04-25 01:44 | -37.22208 | 140.47303 | 32239 ft | 462 kts | 263° |
| 2026-04-25 01:44 | -37.23253 | 140.39357 | 32237 ft | 461 kts | 263° |
| 2026-04-25 01:45 | -37.24293 | 140.31418 | 32233 ft | 461 kts | 264° |
| 2026-04-25 01:45 | -37.25325 | 140.23487 | 32232 ft | 460 kts | 264° |
| 2026-04-25 01:46 | -37.26352 | 140.15565 | 32232 ft | 459 kts | 264° |
| 2026-04-25 01:46 | -37.27372 | 140.07647 | 32221 ft | 459 kts | 264° |
| 2026-04-25 01:47 | -37.28386 | 139.99743 | 32221 ft | 458 kts | 264° |
| 2026-04-25 01:47 | -37.29224 | 139.93182 | 32221 ft | 458 kts | 264° |
| 2026-04-25 01:48 | -37.30227 | 139.85287 | 32214 ft | 457 kts | 264° |
| 2026-04-25 01:48 | -37.31224 | 139.77394 | 32214 ft | 457 kts | 264° |
| 2026-04-25 01:49 | -37.32216 | 139.69506 | 32217 ft | 457 kts | 264° |
| 2026-04-25 01:49 | -37.33202 | 139.61615 | 32215 ft | 457 kts | 264° |
| 2026-04-25 01:50 | -37.34183 | 139.53719 | 32206 ft | 457 kts | 264° |
| 2026-04-25 01:50 | -37.35156 | 139.45839 | 32207 ft | 457 kts | 264° |
| 2026-04-25 01:51 | -37.36126 | 139.37951 | 32205 ft | 456 kts | 264° |
| 2026-04-25 01:51 | -37.37089 | 139.30067 | 32216 ft | 456 kts | 265° |
| 2026-04-25 01:52 | -37.38040 | 139.22238 | 32199 ft | 456 kts | 265° |
| 2026-04-25 01:52 | -37.38992 | 139.14360 | 32200 ft | 455 kts | 265° |
| 2026-04-25 01:53 | -37.39936 | 139.06498 | 32192 ft | 455 kts | 265° |
| 2026-04-25 01:53 | -37.40875 | 138.98634 | 32206 ft | 454 kts | 265° |
| 2026-04-25 01:54 | -37.41808 | 138.90772 | 32180 ft | 454 kts | 265° |
| 2026-04-25 01:54 | -37.42736 | 138.82913 | 32193 ft | 454 kts | 265° |
| 2026-04-25 01:55 | -37.43658 | 138.75055 | 32180 ft | 454 kts | 265° |
| 2026-04-25 01:55 | -37.44574 | 138.67200 | 32189 ft | 454 kts | 265° |
| 2026-04-25 01:56 | -37.45485 | 138.59341 | 32186 ft | 454 kts | 265° |
| 2026-04-25 01:56 | -37.46392 | 138.51475 | 32175 ft | 454 kts | 265° |
| 2026-04-25 01:57 | -37.47742 | 138.39675 | 32181 ft | 454 kts | 265° |
| 2026-04-25 01:58 | -37.48636 | 138.31809 | 32176 ft | 454 kts | 265° |
| 2026-04-25 01:58 | -37.49519 | 138.23946 | 32185 ft | 453 kts | 266° |
| 2026-04-25 01:59 | -37.50395 | 138.16087 | 32175 ft | 452 kts | 266° |
| 2026-04-25 01:59 | -37.51264 | 138.08247 | 32168 ft | 451 kts | 266° |
| 2026-04-25 02:00 | -37.52126 | 138.00422 | 32165 ft | 451 kts | 266° |
| 2026-04-25 02:00 | -37.52982 | 137.92607 | 32186 ft | 450 kts | 266° |
| 2026-04-25 02:01 | -37.53835 | 137.84775 | 32168 ft | 450 kts | 266° |
| 2026-04-25 02:01 | -37.54674 | 137.77013 | 32164 ft | 451 kts | 266° |
| 2026-04-25 02:02 | -37.55515 | 137.69180 | 32157 ft | 451 kts | 266° |
| 2026-04-25 02:02 | -37.56352 | 137.61344 | 32160 ft | 451 kts | 266° |
| 2026-04-25 02:03 | -37.57185 | 137.53495 | 32154 ft | 452 kts | 267° |
| 2026-04-25 02:03 | -37.58014 | 137.45636 | 32151 ft | 452 kts | 267° |
| 2026-04-25 02:04 | -37.58836 | 137.37786 | 32149 ft | 451 kts | 267° |
| 2026-04-25 02:04 | -37.59652 | 137.29942 | 32141 ft | 451 kts | 267° |
| 2026-04-25 02:05 | -37.60462 | 137.22111 | 32164 ft | 450 kts | 267° |
| 2026-04-25 02:05 | -37.61266 | 137.14284 | 32143 ft | 449 kts | 267° |
| 2026-04-25 02:06 | -37.62063 | 137.06470 | 32140 ft | 449 kts | 268° |
| 2026-04-25 02:06 | -37.62853 | 136.98674 | 32140 ft | 448 kts | 268° |
| 2026-04-25 02:07 | -37.63637 | 136.90874 | 32137 ft | 448 kts | 268° |
| 2026-04-25 02:07 | -37.64417 | 136.83075 | 32142 ft | 447 kts | 268° |
| 2026-04-25 02:08 | -37.65190 | 136.75293 | 32139 ft | 447 kts | 268° |
| 2026-04-25 02:08 | -37.65953 | 136.67550 | 32136 ft | 446 kts | 268° |
| 2026-04-25 02:09 | -37.66714 | 136.59781 | 32136 ft | 446 kts | 268° |
| 2026-04-25 02:09 | -37.67470 | 136.52001 | 32139 ft | 446 kts | 268° |
| 2026-04-25 02:10 | -37.68221 | 136.44230 | 32133 ft | 446 kts | 268° |
| 2026-04-25 02:10 | -37.68966 | 136.36457 | 32135 ft | 446 kts | 268° |
| 2026-04-25 02:11 | -37.69706 | 136.28690 | 32136 ft | 446 kts | 268° |
| 2026-04-25 02:11 | -37.70442 | 136.20911 | 32134 ft | 445 kts | 268° |
| 2026-04-25 02:12 | -37.71166 | 136.13193 | 32139 ft | 445 kts | 269° |
| 2026-04-25 02:12 | -37.71890 | 136.05438 | 32127 ft | 445 kts | 269° |
| 2026-04-25 02:13 | -37.72607 | 135.97684 | 32146 ft | 444 kts | 269° |
| 2026-04-25 02:13 | -37.73318 | 135.89949 | 32133 ft | 443 kts | 269° |
| 2026-04-25 02:14 | -37.74023 | 135.82222 | 32173 ft | 442 kts | 270° |
| 2026-04-25 02:14 | -37.74720 | 135.74511 | 32146 ft | 441 kts | 270° |
| 2026-04-25 02:15 | -37.75412 | 135.66814 | 32136 ft | 440 kts | 270° |
| 2026-04-25 02:15 | -37.76097 | 135.59136 | 32136 ft | 439 kts | 270° |
| 2026-04-25 02:16 | -37.76775 | 135.51471 | 32135 ft | 439 kts | 270° |
| 2026-04-25 02:16 | -37.77448 | 135.43812 | 32153 ft | 439 kts | 270° |
| 2026-04-25 02:17 | -37.78116 | 135.36148 | 32137 ft | 439 kts | 270° |
| 2026-04-25 02:17 | -37.78779 | 135.28489 | 32140 ft | 438 kts | 270° |
| 2026-04-25 02:18 | -37.79436 | 135.20845 | 32140 ft | 437 kts | 270° |
| 2026-04-25 02:18 | -37.80087 | 135.13208 | 32143 ft | 436 kts | 270° |
| 2026-04-25 02:19 | -37.80727 | 135.05642 | 32140 ft | 436 kts | 271° |
| 2026-04-25 02:19 | -37.81377 | 134.98035 | 32142 ft | 435 kts | 270° |
| 2026-04-25 02:20 | -37.82191 | 134.90443 | 32144 ft | 435 kts | 269° |
| 2026-04-25 02:20 | -37.83024 | 134.82866 | 32147 ft | 435 kts | 269° |
| 2026-04-25 02:21 | -37.83847 | 134.75296 | 32185 ft | 434 kts | 270° |
| 2026-04-25 02:21 | -37.84666 | 134.67733 | 32157 ft | 433 kts | 270° |
| 2026-04-25 02:22 | -37.85479 | 134.60181 | 32141 ft | 432 kts | 270° |
| 2026-04-25 02:22 | -37.86286 | 134.52651 | 32149 ft | 432 kts | 270° |
| 2026-04-25 02:23 | -37.87087 | 134.45125 | 32153 ft | 431 kts | 270° |
| 2026-04-25 02:23 | -37.87882 | 134.37606 | 32152 ft | 432 kts | 270° |
| 2026-04-25 02:24 | -37.88674 | 134.30082 | 32154 ft | 431 kts | 270° |
| 2026-04-25 02:24 | -37.89458 | 134.22578 | 32153 ft | 429 kts | 270° |
| 2026-04-25 02:25 | -37.90235 | 134.15095 | 32150 ft | 428 kts | 270° |
| 2026-04-25 02:25 | -37.91005 | 134.07634 | 32198 ft | 427 kts | 271° |
| 2026-04-25 02:26 | -37.91770 | 134.00165 | 32165 ft | 427 kts | 271° |
| 2026-04-25 02:26 | -37.92524 | 133.92760 | 32157 ft | 426 kts | 271° |
| 2026-04-25 02:27 | -37.93278 | 133.85318 | 32158 ft | 426 kts | 271° |
| 2026-04-25 02:27 | -37.94026 | 133.77880 | 32157 ft | 425 kts | 271° |
| 2026-04-25 02:28 | -37.94768 | 133.70447 | 32158 ft | 426 kts | 271° |
| 2026-04-25 02:28 | -37.95507 | 133.63003 | 32160 ft | 426 kts | 271° |
| 2026-04-25 02:29 | -37.96241 | 133.55553 | 32160 ft | 426 kts | 271° |
| 2026-04-25 02:29 | -37.96971 | 133.48104 | 32153 ft | 426 kts | 271° |
| 2026-04-25 02:30 | -37.97696 | 133.40658 | 32167 ft | 426 kts | 271° |
| 2026-04-25 02:30 | -37.98416 | 133.33199 | 32166 ft | 427 kts | 271° |
| 2026-04-25 02:31 | -37.99134 | 133.25724 | 32160 ft | 427 kts | 271° |
| 2026-04-25 02:31 | -37.99847 | 133.18257 | 32165 ft | 427 kts | 271° |
| 2026-04-25 02:32 | -38.00554 | 133.10793 | 32165 ft | 427 kts | 271° |
| 2026-04-25 02:32 | -38.01257 | 133.03315 | 32158 ft | 427 kts | 271° |
| 2026-04-25 02:33 | -38.01956 | 132.95839 | 32163 ft | 427 kts | 271° |
| 2026-04-25 02:33 | -38.02649 | 132.88367 | 32162 ft | 427 kts | 271° |
| 2026-04-25 02:34 | -38.03333 | 132.80936 | 32164 ft | 427 kts | 271° |
| 2026-04-25 02:34 | -38.04018 | 132.73454 | 32158 ft | 427 kts | 272° |
| 2026-04-25 02:35 | -38.04697 | 132.65967 | 32172 ft | 428 kts | 271° |
| 2026-04-25 02:35 | -38.05264 | 132.59670 | 32162 ft | 429 kts | 271° |
| 2026-04-25 02:36 | -38.05940 | 132.52133 | 32163 ft | 430 kts | 271° |
| 2026-04-25 02:36 | -38.06612 | 132.44575 | 32161 ft | 431 kts | 271° |
| 2026-04-25 02:37 | -38.07277 | 132.37053 | 32163 ft | 432 kts | 271° |
| 2026-04-25 02:37 | -38.07942 | 132.29447 | 32172 ft | 435 kts | 270° |
| 2026-04-25 02:38 | -38.08607 | 132.21805 | 32164 ft | 436 kts | 270° |
| 2026-04-25 02:38 | -38.09270 | 132.14135 | 32165 ft | 437 kts | 270° |
| 2026-04-25 02:39 | -38.09929 | 132.06453 | 32157 ft | 438 kts | 270° |
| 2026-04-25 02:39 | -38.10582 | 131.98758 | 32183 ft | 439 kts | 269° |
| 2026-04-25 02:40 | -38.11233 | 131.91027 | 32174 ft | 441 kts | 269° |
| 2026-04-25 02:40 | -38.11884 | 131.83259 | 32168 ft | 443 kts | 269° |
| 2026-04-25 02:41 | -38.12531 | 131.75458 | 32162 ft | 445 kts | 269° |
| 2026-04-25 02:41 | -38.13175 | 131.67635 | 32202 ft | 446 kts | 269° |
| 2026-04-25 02:41 | -38.13495 | 131.63710 | 32401 ft | 448 kts | 267° |
| 2026-04-25 02:42 | -38.13816 | 131.59759 | 32560 ft | 451 kts | 267° |
| 2026-04-25 02:42 | -38.14137 | 131.55802 | 32874 ft | 449 kts | 267° |
| 2026-04-25 02:42 | -38.14457 | 131.51855 | 33189 ft | 448 kts | 266° |
| 2026-04-25 02:42 | -38.14775 | 131.47910 | 33352 ft | 451 kts | 266° |
| 2026-04-25 02:43 | -38.15093 | 131.43940 | 33523 ft | 452 kts | 266° |
| 2026-04-25 02:43 | -38.15406 | 131.40016 | 33766 ft | 452 kts | 265° |
| 2026-04-25 02:43 | -38.15721 | 131.36043 | 34032 ft | 452 kts | 265° |
| 2026-04-25 02:44 | -38.16350 | 131.28067 | 34141 ft | 455 kts | 264° |
| 2026-04-25 02:44 | -38.16979 | 131.20014 | 34154 ft | 459 kts | 264° |
| 2026-04-25 02:45 | -38.17605 | 131.11947 | 34162 ft | 459 kts | 264° |
| 2026-04-25 02:45 | -38.18226 | 131.03864 | 34162 ft | 459 kts | 264° |
| 2026-04-25 02:46 | -38.18840 | 130.95785 | 34148 ft | 459 kts | 263° |
| 2026-04-25 02:46 | -38.19448 | 130.87708 | 34157 ft | 459 kts | 262° |
| 2026-04-25 02:47 | -38.20054 | 130.79610 | 34153 ft | 460 kts | 262° |
| 2026-04-25 02:47 | -38.20655 | 130.71495 | 34163 ft | 461 kts | 262° |
| 2026-04-25 02:48 | -38.21248 | 130.63407 | 34163 ft | 462 kts | 262° |
| 2026-04-25 02:48 | -38.21838 | 130.55255 | 34148 ft | 463 kts | 260° |
| 2026-04-25 02:49 | -38.22427 | 130.47083 | 34166 ft | 464 kts | 260° |
| 2026-04-25 02:49 | -38.23009 | 130.38901 | 34150 ft | 465 kts | 259° |
| 2026-04-25 02:50 | -38.23587 | 130.30698 | 34159 ft | 466 kts | 259° |
| 2026-04-25 02:50 | -38.24160 | 130.22487 | 34144 ft | 466 kts | 258° |
| 2026-04-25 02:51 | -38.24728 | 130.14269 | 34158 ft | 467 kts | 258° |
| 2026-04-25 02:51 | -38.25292 | 130.06035 | 34167 ft | 467 kts | 258° |
| 2026-04-25 02:52 | -38.26351 | 129.97983 | 34168 ft | 458 kts | 248° |
| 2026-04-25 02:52 | -38.28375 | 129.90385 | 34163 ft | 451 kts | 242° |
| 2026-04-25 02:53 | -38.30529 | 129.82936 | 34156 ft | 451 kts | 242° |
| 2026-04-25 02:53 | -38.32676 | 129.75429 | 34161 ft | 450 kts | 242° |
| 2026-04-25 02:54 | -38.34799 | 129.67935 | 34159 ft | 450 kts | 242° |
| 2026-04-25 02:54 | -38.36911 | 129.60437 | 34157 ft | 449 kts | 243° |
| 2026-04-25 02:55 | -38.39014 | 129.52947 | 34152 ft | 448 kts | 242° |
| 2026-04-25 02:55 | -38.41111 | 129.45463 | 34157 ft | 448 kts | 242° |
| 2026-04-25 02:56 | -38.43203 | 129.37974 | 34140 ft | 448 kts | 242° |
| 2026-04-25 02:56 | -38.45290 | 129.30482 | 34161 ft | 448 kts | 242° |
| 2026-04-25 02:57 | -38.47375 | 129.22977 | 34159 ft | 449 kts | 242° |
| 2026-04-25 02:57 | -38.49459 | 129.15455 | 34161 ft | 450 kts | 242° |
| 2026-04-25 02:58 | -38.51538 | 129.07927 | 34157 ft | 449 kts | 242° |
| 2026-04-25 02:58 | -38.53612 | 129.00396 | 34161 ft | 450 kts | 242° |
| 2026-04-25 02:59 | -38.55683 | 128.92852 | 34157 ft | 450 kts | 242° |
| 2026-04-25 02:59 | -38.57751 | 128.85298 | 34140 ft | 450 kts | 242° |
| 2026-04-25 03:00 | -38.59811 | 128.77748 | 34158 ft | 449 kts | 242° |
| 2026-04-25 03:00 | -38.61850 | 128.70259 | 34165 ft | 449 kts | 242° |
| 2026-04-25 03:01 | -38.63894 | 128.62722 | 34163 ft | 449 kts | 242° |
| 2026-04-25 03:01 | -38.65935 | 128.55179 | 34156 ft | 448 kts | 242° |
| 2026-04-25 03:02 | -38.67969 | 128.47639 | 34161 ft | 448 kts | 242° |
| 2026-04-25 03:02 | -38.69998 | 128.40098 | 34167 ft | 448 kts | 242° |
| 2026-04-25 03:03 | -38.72023 | 128.32548 | 34164 ft | 448 kts | 242° |
| 2026-04-25 03:03 | -38.74040 | 128.25005 | 34162 ft | 448 kts | 242° |
| 2026-04-25 03:04 | -38.76053 | 128.17455 | 34162 ft | 447 kts | 242° |
| 2026-04-25 03:04 | -38.78057 | 128.09912 | 34168 ft | 447 kts | 242° |
| 2026-04-25 03:05 | -38.81056 | 127.98589 | 34157 ft | 447 kts | 243° |
| 2026-04-25 03:05 | -38.83045 | 127.91047 | 34167 ft | 446 kts | 243° |
| 2026-04-25 03:06 | -38.85030 | 127.83505 | 34171 ft | 446 kts | 243° |
| 2026-04-25 03:06 | -38.86998 | 127.76001 | 34148 ft | 447 kts | 243° |
| 2026-04-25 03:07 | -38.88974 | 127.68444 | 34150 ft | 447 kts | 243° |
| 2026-04-25 03:07 | -38.90948 | 127.60871 | 34164 ft | 447 kts | 243° |
| 2026-04-25 03:08 | -38.92919 | 127.53287 | 34169 ft | 448 kts | 243° |
| 2026-04-25 03:08 | -38.94890 | 127.45685 | 34157 ft | 448 kts | 244° |
| 2026-04-25 03:09 | -38.96852 | 127.38084 | 34165 ft | 448 kts | 244° |
| 2026-04-25 03:09 | -38.98810 | 127.30480 | 34169 ft | 449 kts | 244° |
| 2026-04-25 03:10 | -39.00767 | 127.22855 | 34166 ft | 449 kts | 244° |
| 2026-04-25 03:10 | -39.02718 | 127.15233 | 34158 ft | 449 kts | 245° |
| 2026-04-25 03:11 | -39.04661 | 127.07615 | 34165 ft | 448 kts | 245° |
| 2026-04-25 03:11 | -39.06600 | 126.99992 | 34164 ft | 448 kts | 245° |
| 2026-04-25 03:12 | -39.08535 | 126.92360 | 34164 ft | 448 kts | 245° |
| 2026-04-25 03:12 | -39.10463 | 126.84730 | 34165 ft | 448 kts | 245° |
| 2026-04-25 03:13 | -39.12386 | 126.77100 | 34170 ft | 448 kts | 245° |
| 2026-04-25 03:13 | -39.14305 | 126.69462 | 34168 ft | 448 kts | 245° |
| 2026-04-25 03:14 | -39.16204 | 126.61878 | 34168 ft | 448 kts | 245° |
| 2026-04-25 03:14 | -39.18111 | 126.54235 | 34167 ft | 448 kts | 245° |
| 2026-04-25 03:15 | -39.20013 | 126.46592 | 34170 ft | 448 kts | 245° |
| 2026-04-25 03:15 | -39.21908 | 126.38949 | 34168 ft | 448 kts | 245° |
| 2026-04-25 03:16 | -39.23801 | 126.31298 | 34150 ft | 447 kts | 246° |
| 2026-04-25 03:16 | -39.25683 | 126.23656 | 34160 ft | 447 kts | 246° |
| 2026-04-25 03:17 | -39.27563 | 126.16005 | 34170 ft | 447 kts | 246° |
| 2026-04-25 03:17 | -39.29425 | 126.08404 | 34152 ft | 447 kts | 246° |
| 2026-04-25 03:18 | -39.31292 | 126.00754 | 34166 ft | 447 kts | 247° |
| 2026-04-25 03:18 | -39.33153 | 125.93104 | 34166 ft | 447 kts | 247° |
| 2026-04-25 03:19 | -39.35012 | 125.85441 | 34166 ft | 447 kts | 247° |
| 2026-04-25 03:19 | -39.36865 | 125.77776 | 34158 ft | 447 kts | 247° |
| 2026-04-25 03:20 | -39.38711 | 125.70114 | 34163 ft | 446 kts | 247° |
| 2026-04-25 03:20 | -39.40552 | 125.62451 | 34169 ft | 446 kts | 247° |
| 2026-04-25 03:21 | -39.42389 | 125.54777 | 34167 ft | 446 kts | 247° |
| 2026-04-25 03:21 | -39.44219 | 125.47108 | 34162 ft | 446 kts | 248° |
| 2026-04-25 03:22 | -39.45736 | 125.40731 | 34167 ft | 446 kts | 248° |
| 2026-04-25 03:22 | -39.47556 | 125.33058 | 34166 ft | 446 kts | 248° |
| 2026-04-25 03:23 | -39.49370 | 125.25383 | 34166 ft | 446 kts | 248° |
| 2026-04-25 03:23 | -39.51178 | 125.17711 | 34166 ft | 445 kts | 248° |
| 2026-04-25 03:24 | -39.52981 | 125.10035 | 34164 ft | 445 kts | 248° |
| 2026-04-25 03:24 | -39.54778 | 125.02357 | 34166 ft | 445 kts | 248° |
| 2026-04-25 03:25 | -39.56571 | 124.94669 | 34160 ft | 445 kts | 249° |
| 2026-04-25 03:25 | -39.58358 | 124.86987 | 34167 ft | 445 kts | 249° |
| 2026-04-25 03:26 | -39.60128 | 124.79344 | 34165 ft | 445 kts | 249° |
| 2026-04-25 03:26 | -39.61906 | 124.71647 | 34167 ft | 445 kts | 249° |